Time;durP1;ratioP1;P1;durP2;ratioP2;P2;SDS_P1;SDS_P2;PMS_P1;PMS_P2;Temp;Humidity;BMP_temperature;BMP_pressure;BME280_temperature;BME280_humidity;BME280_pressure;Samples;Min_cycle;Max_cycle;Signal;HPM_P1;HPM_P2
2023/05/17 00:00:01;;;;;;;5.97;1.20;;;;;;;8.43;100.00;101532.66;4911866;29;20036;-75
2023/05/17 00:02:27;;;;;;;3.95;1.65;;;;;;;8.39;100.00;101528.75;4937995;29;20043;-75
2023/05/17 00:04:52;;;;;;;5.70;1.30;;;;;;;8.37;100.00;101525.38;4918835;29;20039;-75
2023/05/17 00:07:18;;;;;;;4.80;1.20;;;;;;;8.34;100.00;101523.09;4925314;29;20035;-75
2023/05/17 00:09:43;;;;;;;4.03;1.30;;;;;;;8.27;100.00;101528.81;4909509;29;20028;-75
2023/05/17 00:12:09;;;;;;;5.75;1.30;;;;;;;8.24;100.00;101530.16;4942037;29;20028;-75
2023/05/17 00:14:34;;;;;;;5.70;1.27;;;;;;;8.21;100.00;101514.06;4940718;29;20038;-75
2023/05/17 00:17:00;;;;;;;4.97;1.38;;;;;;;8.21;100.00;101522.34;4942049;28;20409;-75
2023/05/17 00:19:25;;;;;;;3.55;1.05;;;;;;;8.14;100.00;101510.63;4940772;29;20388;-75
2023/05/17 00:21:50;;;;;;;4.50;1.50;;;;;;;8.14;100.00;101516.19;4923442;29;20142;-75
2023/05/17 00:24:16;;;;;;;3.85;1.27;;;;;;;8.09;100.00;101512.50;4940624;29;20035;-75
2023/05/17 00:26:41;;;;;;;4.22;1.10;;;;;;;8.05;100.00;101513.00;4939099;29;20056;-75
2023/05/17 00:29:07;;;;;;;4.50;1.30;;;;;;;8.04;100.00;101514.06;4940783;29;20028;-75
2023/05/17 00:31:32;;;;;;;4.00;1.25;;;;;;;8.02;100.00;101518.19;4921276;29;20084;-75
2023/05/17 00:33:58;;;;;;;4.47;1.17;;;;;;;7.96;100.00;101513.66;4937438;29;20389;-75
2023/05/17 00:36:23;;;;;;;6.13;1.30;;;;;;;7.96;100.00;101519.19;4917919;29;20087;-75
2023/05/17 00:38:49;;;;;;;2.85;1.25;;;;;;;7.93;100.00;101509.47;4924688;29;20038;-75
2023/05/17 00:41:14;;;;;;;2.75;1.20;;;;;;;7.89;100.00;101518.53;4940396;29;20035;-75
2023/05/17 00:43:40;;;;;;;2.97;1.50;;;;;;;7.82;100.00;101525.06;4937210;29;20397;-75
2023/05/17 00:46:05;;;;;;;6.88;1.40;;;;;;;7.81;100.00;101523.38;4940206;29;20484;-75
2023/05/17 00:48:31;;;;;;;4.28;1.20;;;;;;;7.80;100.00;101518.97;4908591;29;20043;-75
2023/05/17 00:50:56;;;;;;;3.10;1.20;;;;;;;7.74;100.00;101517.16;4940438;29;20078;-75
2023/05/17 00:53:22;;;;;;;4.85;1.40;;;;;;;7.75;100.00;101521.63;4939815;29;20054;-75
2023/05/17 00:55:47;;;;;;;2.80;1.17;;;;;;;7.74;100.00;101525.47;4939921;28;20050;-75
2023/05/17 00:58:13;;;;;;;4.90;1.73;;;;;;;7.73;100.00;101523.81;4940084;29;20481;-75
2023/05/17 01:00:38;;;;;;;3.15;1.20;;;;;;;7.70;100.00;101520.72;4937004;29;20028;-75
2023/05/17 01:03:04;;;;;;;1.45;1.00;;;;;;;7.65;100.00;101521.44;4925887;29;20047;-75
2023/05/17 01:05:30;;;;;;;4.70;1.25;;;;;;;7.67;100.00;101516.50;4905193;29;20028;-75
2023/05/17 01:07:55;;;;;;;3.40;1.40;;;;;;;7.63;100.00;101522.78;4924229;29;20032;-74
2023/05/17 01:10:27;;;;;;;3.22;1.35;;;;;;;7.59;100.00;101517.75;4939967;29;20036;-75
2023/05/17 01:13:12;;;;;;;3.67;1.40;;;;;;;7.57;100.00;101527.38;4923464;29;20476;-75
2023/05/17 01:15:41;;;;;;;3.58;1.40;;;;;;;7.50;100.00;101521.19;4923791;29;20028;-75
2023/05/17 01:18:11;;;;;;;4.68;1.30;;;;;;;7.47;100.00;101513.41;4936412;29;20086;-75
2023/05/17 01:20:37;;;;;;;3.03;1.60;;;;;;;7.44;100.00;101516.63;4922335;29;20110;-75
2023/05/17 01:23:24;;;;;;;5.13;1.27;;;;;;;7.44;100.00;101511.09;4892544;29;20024;-75
2023/05/17 01:26:14;;;;;;;4.13;1.40;;;;;;;7.43;100.00;101510.28;4912470;29;20102;-75
2023/05/17 01:28:40;;;;;;;2.53;1.20;;;;;;;7.37;100.00;101503.81;4925485;29;20035;-75
2023/05/17 01:31:06;;;;;;;3.60;1.27;;;;;;;7.35;100.00;101513.44;4920322;29;20036;-75
2023/05/17 01:33:32;;;;;;;4.60;1.70;;;;;;;7.37;100.00;101505.75;4923310;29;20042;-75
2023/05/17 01:35:57;;;;;;;5.75;1.65;;;;;;;7.32;100.00;101502.88;4939452;29;20039;-75
2023/05/17 01:38:23;;;;;;;2.05;1.10;;;;;;;7.32;100.00;101503.72;4940767;29;20066;-75
2023/05/17 01:41:08;;;;;;;4.43;1.33;;;;;;;7.24;100.00;101504.13;4920466;29;20036;-75
2023/05/17 01:43:37;;;;;;;6.47;1.45;;;;;;;7.23;100.00;101507.16;4936033;29;20047;-75
2023/05/17 01:46:31;;;;;;;4.65;1.27;;;;;;;7.24;100.00;101511.56;4933663;29;20227;-75
2023/05/17 01:49:05;;;;;;;4.80;1.40;;;;;;;7.24;100.00;101512.41;4923436;29;20032;-75
2023/05/17 01:51:32;;;;;;;5.85;1.50;;;;;;;7.19;100.00;101512.34;4922923;29;20049;-74
2023/05/17 01:54:01;;;;;;;4.10;1.60;;;;;;;7.19;100.00;101511.47;4907486;29;20027;-75
2023/05/17 01:56:29;;;;;;;5.93;1.70;;;;;;;7.12;100.00;101518.00;4922750;29;20052;-75
2023/05/17 01:58:54;;;;;;;5.57;1.80;;;;;;;7.16;100.00;101510.06;4919764;29;20056;-74
2023/05/17 02:01:20;;;;;;;4.22;1.52;;;;;;;7.12;100.00;101514.41;4919676;29;20401;-75
2023/05/17 02:03:49;;;;;;;6.60;1.50;;;;;;;7.08;100.00;101511.28;4916283;29;20039;-74
2023/05/17 02:06:15;;;;;;;5.25;1.67;;;;;;;7.07;100.00;101508.75;4907244;29;20082;-74
2023/05/17 02:08:40;;;;;;;3.10;1.23;;;;;;;7.04;100.00;101512.84;4938737;29;20028;-74
2023/05/17 02:11:06;;;;;;;4.88;1.83;;;;;;;7.01;100.00;101513.34;4923089;29;20055;-74
2023/05/17 02:13:31;;;;;;;4.88;1.70;;;;;;;6.99;100.00;101504.47;4938365;28;20042;-75
2023/05/17 02:16:01;;;;;;;2.35;1.15;;;;;;;6.96;100.00;101509.66;4938538;29;20027;-74
2023/05/17 02:18:26;;;;;;;4.85;1.58;;;;;;;6.98;100.00;101508.31;4941445;29;20032;-74
2023/05/17 02:20:52;;;;;;;3.67;1.40;;;;;;;6.96;100.00;101504.13;4923029;29;20034;-74
2023/05/17 02:23:18;;;;;;;3.58;1.60;;;;;;;6.94;100.00;101510.75;4938331;29;20039;-74
2023/05/17 02:25:43;;;;;;;5.43;2.15;;;;;;;6.93;100.00;101510.97;4938401;29;20032;-74
2023/05/17 02:28:09;;;;;;;7.53;2.10;;;;;;;6.89;100.00;101513.41;4939891;29;20031;-74
2023/05/17 02:30:34;;;;;;;3.92;1.58;;;;;;;6.90;100.00;101511.47;4906940;29;20039;-74
2023/05/17 02:33:00;;;;;;;5.18;1.77;;;;;;;6.87;100.00;101512.78;4895741;29;20028;-74
2023/05/17 02:35:25;;;;;;;4.15;1.70;;;;;;;6.89;100.00;101515.31;4938154;29;20036;-75
2023/05/17 02:37:51;;;;;;;5.55;1.48;;;;;;;6.87;100.00;101510.03;4938299;29;20420;-74
2023/05/17 02:40:16;;;;;;;4.78;2.03;;;;;;;6.85;100.00;101512.22;4939424;29;20039;-74
2023/05/17 02:42:42;;;;;;;5.80;2.00;;;;;;;6.83;100.00;101511.63;4938452;29;20127;-74
2023/05/17 02:45:08;;;;;;;6.93;1.90;;;;;;;6.79;100.00;101504.91;4937945;29;20032;-75
2023/05/17 02:47:33;;;;;;;6.22;2.30;;;;;;;6.77;100.00;101515.38;4918943;29;20051;-74
2023/05/17 02:49:59;;;;;;;5.45;1.95;;;;;;;6.78;100.00;101508.75;4934999;29;20071;-74
2023/05/17 02:52:24;;;;;;;7.07;2.45;;;;;;;6.74;100.00;101507.53;4938705;29;20063;-74
2023/05/17 02:54:50;;;;;;;5.40;2.17;;;;;;;6.77;100.00;101512.59;4922406;29;20039;-74
2023/05/17 02:57:15;;;;;;;7.05;2.40;;;;;;;6.79;100.00;101507.66;4918867;29;20044;-75
2023/05/17 02:59:41;;;;;;;5.75;2.13;;;;;;;6.73;100.00;101511.41;4936266;29;20044;-75
2023/05/17 03:02:06;;;;;;;3.85;2.13;;;;;;;6.75;100.00;101513.94;4919803;29;20080;-74
2023/05/17 03:04:32;;;;;;;5.68;2.10;;;;;;;6.73;100.00;101508.63;4938846;29;20087;-74
2023/05/17 03:06:58;;;;;;;6.30;2.20;;;;;;;6.72;100.00;101516.09;4924167;29;20036;-74
2023/05/17 03:09:23;;;;;;;6.63;2.30;;;;;;;6.67;100.00;101509.63;4922958;29;20374;-74
2023/05/17 03:11:49;;;;;;;9.50;2.58;;;;;;;6.65;100.00;101509.84;4924248;29;20496;-74
2023/05/17 03:14:15;;;;;;;4.55;1.90;;;;;;;6.66;100.00;101516.25;4938681;29;20512;-75
2023/05/17 03:16:41;;;;;;;6.82;2.47;;;;;;;6.66;100.00;101510.72;4938378;29;20040;-74
2023/05/17 03:19:06;;;;;;;7.05;2.20;;;;;;;6.58;100.00;101514.69;4938730;29;20038;-75
2023/05/17 03:21:31;;;;;;;6.55;2.17;;;;;;;6.61;100.00;101516.13;4919967;29;20228;-75
2023/05/17 03:23:57;;;;;;;7.25;2.40;;;;;;;6.58;100.00;101511.09;4922320;29;20036;-75
2023/05/17 03:26:23;;;;;;;6.28;2.47;;;;;;;6.56;100.00;101516.84;4925422;29;20032;-74
2023/05/17 03:28:49;;;;;;;6.65;2.40;;;;;;;6.54;100.00;101515.41;4942742;29;20099;-74
2023/05/17 03:31:16;;;;;;;4.85;2.10;;;;;;;6.52;100.00;101512.91;4924804;29;20083;-74
2023/05/17 03:33:41;;;;;;;5.75;2.25;;;;;;;6.52;100.00;101512.91;4922562;29;20039;-74
2023/05/17 03:36:07;;;;;;;4.47;2.30;;;;;;;6.53;100.00;101509.06;4923998;29;20493;-75
2023/05/17 03:38:32;;;;;;;5.15;2.15;;;;;;;6.54;100.00;101505.19;4938478;29;20031;-74
2023/05/17 03:40:58;;;;;;;6.60;2.38;;;;;;;6.45;100.00;101509.41;4923735;29;20485;-74
2023/05/17 03:43:23;;;;;;;6.07;2.10;;;;;;;6.45;100.00;101515.78;4938401;29;20036;-74
2023/05/17 03:45:49;;;;;;;4.78;2.28;;;;;;;6.42;100.00;101513.50;4934800;29;20036;-74
2023/05/17 03:48:14;;;;;;;5.85;2.17;;;;;;;6.39;100.00;101515.91;4935831;29;20020;-75
2023/05/17 03:50:40;;;;;;;7.38;2.15;;;;;;;6.40;100.00;101512.91;4938252;29;20032;-74
2023/05/17 03:53:06;;;;;;;6.00;2.08;;;;;;;6.39;100.00;101516.75;4938787;28;20032;-74
2023/05/17 03:55:31;;;;;;;7.00;2.17;;;;;;;6.34;100.00;101518.56;4926519;29;20062;-76
2023/05/17 03:57:57;;;;;;;5.57;2.28;;;;;;;6.40;100.00;101523.94;4942232;29;20508;-76
2023/05/17 04:00:23;;;;;;;4.55;1.70;;;;;;;6.32;100.00;101529.81;4925245;29;20079;-76
2023/05/17 04:02:49;;;;;;;4.60;2.08;;;;;;;6.33;100.00;101527.94;4924649;29;20035;-77
2023/05/17 04:05:15;;;;;;;4.47;1.88;;;;;;;6.30;100.00;101529.25;4940973;29;20051;-76
2023/05/17 04:07:40;;;;;;;4.97;1.88;;;;;;;6.26;100.00;101534.38;4925150;29;20023;-76
2023/05/17 04:10:06;;;;;;;5.00;2.10;;;;;;;6.24;100.00;101530.19;4921937;29;20489;-76
2023/05/17 04:12:32;;;;;;;4.53;1.67;;;;;;;6.21;100.00;101530.66;4921644;29;20039;-76
2023/05/17 04:14:57;;;;;;;5.00;1.92;;;;;;;6.21;100.00;101536.19;4925137;29;20024;-76
2023/05/17 04:17:23;;;;;;;4.03;1.90;;;;;;;6.19;100.00;101532.84;4924612;29;20019;-76
2023/05/17 04:19:48;;;;;;;4.63;2.10;;;;;;;6.19;100.00;101530.91;4924459;29;20091;-76
2023/05/17 04:22:14;;;;;;;5.05;2.30;;;;;;;6.15;100.00;101534.38;4940476;29;20035;-76
2023/05/17 04:24:39;;;;;;;6.60;2.22;;;;;;;6.18;100.00;101542.19;4909497;29;20469;-76
2023/05/17 04:27:05;;;;;;;4.25;2.00;;;;;;;6.16;100.00;101544.34;4940272;29;20322;-76
2023/05/17 04:29:31;;;;;;;5.45;2.08;;;;;;;6.16;100.00;101538.84;4940606;29;20067;-77
2023/05/17 04:31:56;;;;;;;3.33;1.80;;;;;;;6.14;100.00;101539.06;4924637;29;20036;-76
2023/05/17 04:34:22;;;;;;;4.05;1.92;;;;;;;6.17;100.00;101548.78;4937484;29;20592;-76
2023/05/17 04:36:48;;;;;;;4.97;2.15;;;;;;;6.17;100.00;101546.84;4939770;29;20086;-76
2023/05/17 04:39:14;;;;;;;4.97;2.17;;;;;;;6.21;100.00;101547.22;4924606;29;20528;-76
2023/05/17 04:41:39;;;;;;;7.22;2.38;;;;;;;6.16;100.00;101550.72;4941504;29;20055;-76
2023/05/17 04:44:05;;;;;;;5.22;1.85;;;;;;;6.17;100.00;101546.03;4941763;29;20036;-76
2023/05/17 04:46:30;;;;;;;5.25;2.05;;;;;;;6.26;100.00;101552.84;4940850;29;20042;-76
2023/05/17 04:48:56;;;;;;;4.35;1.92;;;;;;;6.18;100.00;101553.22;4941718;29;20032;-76
2023/05/17 04:51:22;;;;;;;4.82;1.90;;;;;;;6.20;100.00;101562.94;4940199;29;20038;-76
2023/05/17 04:53:47;;;;;;;4.18;1.80;;;;;;;6.22;100.00;101565.47;4939785;29;20032;-76
2023/05/17 04:56:13;;;;;;;5.13;1.80;;;;;;;6.24;100.00;101566.91;4941166;29;20055;-76
2023/05/17 04:58:38;;;;;;;8.75;2.13;;;;;;;6.28;100.00;101561.75;4924188;29;20051;-76
2023/05/17 05:01:04;;;;;;;3.97;1.75;;;;;;;6.34;100.00;101565.47;4940896;29;20039;-74
2023/05/17 05:03:29;;;;;;;4.53;2.20;;;;;;;6.37;100.00;101567.72;4924305;29;20397;-74
2023/05/17 05:05:55;;;;;;;5.32;1.90;;;;;;;6.42;100.00;101567.84;4941070;29;20047;-75
2023/05/17 05:08:20;;;;;;;4.93;1.95;;;;;;;6.52;100.00;101568.09;4939988;29;20027;-75
2023/05/17 05:10:46;;;;;;;4.35;2.28;;;;;;;6.59;100.00;101570.72;4908139;29;20039;-74
2023/05/17 05:13:11;;;;;;;6.35;1.90;;;;;;;6.68;100.00;101570.09;4923951;29;20032;-74
2023/05/17 05:15:37;;;;;;;6.18;2.28;;;;;;;6.78;100.00;101574.19;4923703;29;20047;-75
2023/05/17 05:18:03;;;;;;;6.15;2.20;;;;;;;6.87;100.00;101568.03;4923770;29;20031;-75
2023/05/17 05:20:28;;;;;;;7.60;2.78;;;;;;;6.97;100.00;101572.09;4936491;29;20028;-75
2023/05/17 05:22:53;;;;;;;5.15;2.25;;;;;;;7.07;100.00;101572.31;4931864;29;20473;-75
2023/05/17 05:25:19;;;;;;;9.23;2.47;;;;;;;7.21;100.00;101584.75;4923608;29;20031;-74
2023/05/17 05:27:45;;;;;;;5.88;1.77;;;;;;;7.32;100.00;101577.50;4922589;29;20039;-75
2023/05/17 05:30:11;;;;;;;6.47;1.90;;;;;;;7.47;100.00;101582.50;4907986;29;20042;-75
2023/05/17 05:32:39;;;;;;;3.72;1.60;;;;;;;7.59;100.00;101581.34;4923328;29;20035;-75
2023/05/17 05:35:05;;;;;;;5.13;1.60;;;;;;;7.74;100.00;101588.22;4939347;29;20031;-75
2023/05/17 05:37:30;;;;;;;4.30;1.77;;;;;;;7.87;100.00;101592.63;4939301;29;20024;-75
2023/05/17 05:39:56;;;;;;;4.75;2.00;;;;;;;8.02;100.00;101590.09;4907556;29;20031;-75
2023/05/17 05:42:21;;;;;;;7.05;2.08;;;;;;;8.16;100.00;101594.25;4923737;29;20031;-75
2023/05/17 05:44:47;;;;;;;8.35;2.38;;;;;;;8.29;100.00;101585.59;4922087;29;20032;-75
2023/05/17 05:47:12;;;;;;;7.18;1.95;;;;;;;8.44;100.00;101590.56;4935790;29;20397;-75
2023/05/17 05:49:38;;;;;;;6.55;1.98;;;;;;;8.61;100.00;101593.31;4935650;29;20039;-75
2023/05/17 05:52:03;;;;;;;7.30;1.98;;;;;;;8.77;100.00;101596.28;4907074;29;20040;-75
2023/05/17 05:54:29;;;;;;;6.70;1.98;;;;;;;8.94;100.00;101599.84;4923256;29;20334;-75
2023/05/17 05:56:54;;;;;;;6.47;1.45;;;;;;;9.09;100.00;101602.00;4939036;29;20055;-75
2023/05/17 05:59:20;;;;;;;6.57;2.00;;;;;;;9.25;100.00;101601.09;4940126;29;20032;-75
2023/05/17 06:01:46;;;;;;;5.75;1.90;;;;;;;9.44;100.00;101606.28;4935504;29;20434;-75
2023/05/17 06:04:12;;;;;;;7.30;1.73;;;;;;;9.61;100.00;101607.88;4935802;29;20040;-75
2023/05/17 06:06:37;;;;;;;3.33;1.70;;;;;;;9.80;100.00;101605.56;4919806;29;20504;-75
2023/05/17 06:09:05;;;;;;;3.33;1.90;;;;;;;10.01;100.00;101608.53;4922950;29;20083;-75
2023/05/17 06:11:31;;;;;;;9.88;2.08;;;;;;;10.20;100.00;101609.00;4938692;29;20027;-75
2023/05/17 06:13:56;;;;;;;6.88;1.90;;;;;;;10.39;100.00;101613.06;4939816;29;20035;-75
2023/05/17 06:16:22;;;;;;;7.80;2.30;;;;;;;10.58;100.00;101612.63;4907038;29;20035;-75
2023/05/17 06:18:47;;;;;;;7.68;2.50;;;;;;;10.76;100.00;101620.53;4940022;29;20028;-76
2023/05/17 06:21:14;;;;;;;8.75;2.65;;;;;;;10.92;100.00;101613.97;4938561;29;20507;-75
2023/05/17 06:23:40;;;;;;;6.95;2.20;;;;;;;11.12;100.00;101609.63;4922424;29;20090;-75
2023/05/17 06:26:09;;;;;;;8.80;2.50;;;;;;;11.31;100.00;101608.03;4939710;29;20032;-75
2023/05/17 06:28:35;;;;;;;5.30;1.88;;;;;;;11.53;100.00;101612.53;4938017;29;20055;-76
2023/05/17 06:31:00;;;;;;;5.85;2.22;;;;;;;11.70;100.00;101606.75;4922634;29;20722;-75
2023/05/17 06:33:26;;;;;;;6.82;2.00;;;;;;;11.85;100.00;101607.66;4938396;29;20326;-76
2023/05/17 06:35:51;;;;;;;6.72;1.80;;;;;;;12.05;100.00;101606.00;4939541;29;20035;-76
2023/05/17 06:38:17;;;;;;;7.10;1.67;;;;;;;12.21;100.00;101604.88;4939423;29;20031;-76
2023/05/17 06:40:42;;;;;;;8.52;2.30;;;;;;;12.40;100.00;101605.16;4939517;29;20083;-77
2023/05/17 06:43:08;;;;;;;5.95;1.85;;;;;;;12.53;100.00;101607.38;4922416;29;20035;-76
2023/05/17 06:45:33;;;;;;;7.85;2.65;;;;;;;12.67;100.00;101607.63;4938027;29;20480;-76
2023/05/17 06:47:59;;;;;;;5.75;2.22;;;;;;;12.84;100.00;101612.03;4936938;29;20039;-76
2023/05/17 06:50:27;;;;;;;5.57;2.33;;;;;;;12.96;100.00;101615.38;4922572;29;20043;-76
2023/05/17 06:52:52;;;;;;;7.10;1.98;;;;;;;13.11;100.00;101618.09;4922867;29;20059;-76
2023/05/17 06:55:18;;;;;;;7.63;2.40;;;;;;;13.22;100.00;101623.66;4939092;29;20082;-77
2023/05/17 06:57:43;;;;;;;9.30;2.50;;;;;;;13.35;100.00;101617.50;4919828;29;20023;-76
2023/05/17 07:00:09;;;;;;;9.27;2.17;;;;;;;13.45;100.00;101628.59;4937849;29;20071;-76
2023/05/17 07:02:36;;;;;;;11.45;2.63;;;;;;;13.57;100.00;101620.75;4921675;29;20040;-77
2023/05/17 07:05:03;;;;;;;8.18;2.35;;;;;;;13.72;100.00;101618.97;4906685;29;20145;-76
2023/05/17 07:07:29;;;;;;;9.23;2.28;;;;;;;13.86;100.00;101625.59;4921919;29;20051;-76
2023/05/17 07:09:54;;;;;;;8.18;2.28;;;;;;;13.98;100.00;101617.66;4918960;29;20028;-76
2023/05/17 07:12:20;;;;;;;11.20;2.30;;;;;;;14.15;100.00;101625.69;4937667;29;20031;-76
2023/05/17 07:14:46;;;;;;;12.25;3.42;;;;;;;14.22;100.00;101631.75;4937684;29;20043;-77
2023/05/17 07:17:11;;;;;;;12.13;3.05;;;;;;;14.40;100.00;101618.19;4938918;29;20036;-77
2023/05/17 07:19:37;;;;;;;9.57;2.45;;;;;;;14.48;100.00;101623.97;4939020;29;20027;-77
2023/05/17 07:22:02;;;;;;;7.82;2.65;;;;;;;14.66;100.00;101621.63;4921898;29;20473;-77
2023/05/17 07:24:28;;;;;;;8.35;2.72;;;;;;;14.79;100.00;101623.72;4921991;29;20055;-77
2023/05/17 07:26:53;;;;;;;9.50;3.08;;;;;;;14.93;100.00;101623.84;4920226;29;20039;-77
2023/05/17 07:29:19;;;;;;;8.18;2.60;;;;;;;15.02;100.00;101626.84;4937886;29;20032;-77
2023/05/17 07:31:45;;;;;;;12.05;3.65;;;;;;;15.15;100.00;101626.13;4921517;29;20043;-77
2023/05/17 07:34:10;;;;;;;10.43;3.00;;;;;;;15.31;100.00;101624.81;4937799;29;20507;-77
2023/05/17 07:36:36;;;;;;;12.30;3.35;;;;;;;15.47;100.00;101633.03;4938819;29;20027;-77
2023/05/17 07:39:01;;;;;;;11.38;3.50;;;;;;;15.58;100.00;101631.75;4938905;29;20070;-77
2023/05/17 07:41:27;;;;;;;10.43;3.50;;;;;;;15.71;100.00;101625.44;4935952;29;20036;-77
2023/05/17 07:43:52;;;;;;;10.20;3.42;;;;;;;15.84;100.00;101619.06;4938718;29;20035;-77
2023/05/17 07:46:18;;;;;;;11.50;3.80;;;;;;;15.98;100.00;101613.53;4926468;29;20035;-77
2023/05/17 07:48:44;;;;;;;9.63;3.50;;;;;;;16.15;100.00;101617.75;4937733;29;20039;-78
2023/05/17 07:51:10;;;;;;;12.35;3.50;;;;;;;16.27;100.00;101623.75;4921716;29;20112;-77
2023/05/17 07:53:35;;;;;;;8.32;3.45;;;;;;;16.43;100.00;101621.50;4938677;29;20031;-77
2023/05/17 07:56:00;;;;;;;10.10;3.83;;;;;;;16.55;100.00;101621.88;4918372;29;20493;-77
2023/05/17 07:58:26;;;;;;;9.68;3.40;;;;;;;16.66;100.00;101620.53;4934190;28;20036;-78
2023/05/17 08:00:51;;;;;;;13.88;4.38;;;;;;;16.79;100.00;101618.09;4918226;29;20047;-78
2023/05/17 08:03:17;;;;;;;11.63;4.10;;;;;;;16.94;100.00;101620.63;4937650;29;20039;-77
2023/05/17 08:05:42;;;;;;;11.75;4.13;;;;;;;17.03;100.00;101621.56;4909375;29;20072;-77
2023/05/17 08:08:08;;;;;;;14.65;4.30;;;;;;;17.16;100.00;101614.25;4921351;29;20040;-77
2023/05/17 08:10:36;;;;;;;9.93;4.00;;;;;;;17.28;98.13;101617.41;4937776;29;20059;-78
2023/05/17 08:13:03;;;;;;;11.70;3.65;;;;;;;17.42;97.70;101614.59;4940983;29;20378;-78
2023/05/17 08:15:29;;;;;;;11.23;3.65;;;;;;;17.49;92.53;101611.34;4941494;28;20032;-77
2023/05/17 08:17:54;;;;;;;11.10;3.67;;;;;;;17.57;94.33;101619.84;4938583;29;20402;-78
2023/05/17 08:20:20;;;;;;;6.68;3.50;;;;;;;17.68;95.03;101612.03;4910159;29;20135;-78
2023/05/17 08:22:46;;;;;;;10.10;3.67;;;;;;;17.79;92.17;101613.50;4941675;29;20035;-77
2023/05/17 08:25:11;;;;;;;12.45;3.70;;;;;;;17.95;90.36;101615.97;4909836;29;20035;-78
2023/05/17 08:27:37;;;;;;;12.82;4.53;;;;;;;18.03;89.45;101618.84;4941527;29;20024;-78
2023/05/17 08:30:04;;;;;;;10.63;3.95;;;;;;;18.17;89.52;101618.78;4941510;29;20035;-78
2023/05/17 08:32:29;;;;;;;9.43;3.72;;;;;;;18.33;84.06;101622.06;4940224;29;20043;-78
2023/05/17 08:34:56;;;;;;;14.27;4.60;;;;;;;18.41;86.89;101629.69;4925312;29;20040;-78
2023/05/17 08:37:24;;;;;;;12.45;4.05;;;;;;;18.44;81.48;101617.84;4925671;29;20076;-77
2023/05/17 08:39:50;;;;;;;12.77;4.22;;;;;;;18.56;77.49;101619.22;4940775;29;20040;-77
2023/05/17 08:42:18;;;;;;;10.32;4.45;;;;;;;18.58;80.61;101622.53;4941165;29;20036;-77
2023/05/17 08:44:44;;;;;;;14.27;4.65;;;;;;;18.66;80.99;101624.56;4921414;29;20080;-77
2023/05/17 08:47:10;;;;;;;11.57;4.47;;;;;;;18.71;81.34;101611.19;4920879;29;20032;-78
2023/05/17 08:49:36;;;;;;;12.70;4.95;;;;;;;18.64;78.34;101618.47;4936214;29;20040;-77
2023/05/17 08:52:08;;;;;;;10.15;4.30;;;;;;;18.80;82.86;101610.44;4921081;29;20047;-77
2023/05/17 08:54:34;;;;;;;10.18;4.28;;;;;;;18.86;78.83;101610.00;4921307;29;20035;-77
2023/05/17 08:57:00;;;;;;;14.57;4.50;;;;;;;19.00;80.42;101611.84;4937087;29;20052;-77
2023/05/17 08:59:32;;;;;;;10.02;4.22;;;;;;;19.00;77.18;101609.03;4921021;29;20389;-77
2023/05/17 09:01:58;;;;;;;11.52;4.57;;;;;;;19.11;76.91;101614.09;4936631;29;20067;-77
2023/05/17 09:04:23;;;;;;;8.48;4.25;;;;;;;19.23;75.63;101609.81;4914856;29;20138;-78
2023/05/17 09:06:49;;;;;;;10.13;3.75;;;;;;;19.35;74.85;101619.28;4921584;29;20036;-77
2023/05/17 09:09:14;;;;;;;9.25;4.55;;;;;;;19.33;67.82;101617.94;4918691;29;20044;-77
2023/05/17 09:11:40;;;;;;;9.27;4.38;;;;;;;19.30;70.77;101610.16;4936884;29;20063;-76
2023/05/17 09:14:06;;;;;;;12.43;4.90;;;;;;;19.28;69.56;101613.31;4936469;29;20036;-77
2023/05/17 09:16:35;;;;;;;9.25;4.32;;;;;;;19.35;69.68;101619.28;4920620;29;20024;-76
2023/05/17 09:19:02;;;;;;;10.57;4.40;;;;;;;19.35;64.03;101613.66;4936511;29;20070;-77
2023/05/17 09:21:29;;;;;;;10.77;4.70;;;;;;;19.35;64.45;101613.66;4936551;29;20035;-77
2023/05/17 09:23:55;;;;;;;12.15;4.75;;;;;;;19.43;64.56;101614.84;4935418;29;20039;-77
2023/05/17 09:26:21;;;;;;;8.90;4.47;;;;;;;19.54;63.57;101604.09;4933178;29;20028;-77
2023/05/17 09:28:47;;;;;;;10.80;3.78;;;;;;;19.43;55.67;101623.28;4921321;29;20137;-77
2023/05/17 09:31:14;;;;;;;9.77;4.43;;;;;;;19.43;54.78;101621.28;4932311;29;20052;-77
2023/05/17 09:33:46;;;;;;;8.93;4.05;;;;;;;19.41;53.83;101617.13;4913746;29;20381;-77
2023/05/17 09:36:15;;;;;;;6.72;3.88;;;;;;;19.54;55.90;101618.19;4913056;29;20437;-78
2023/05/17 09:38:41;;;;;;;10.32;3.60;;;;;;;19.56;55.93;101611.06;4931108;29;20040;-78
2023/05/17 09:41:06;;;;;;;11.45;4.57;;;;;;;19.56;55.69;101615.88;4904590;29;20035;-77
2023/05/17 09:43:32;;;;;;;8.70;4.80;;;;;;;19.68;55.04;101607.63;4936187;29;20040;-77
2023/05/17 09:45:57;;;;;;;9.32;4.18;;;;;;;19.81;54.68;101606.66;4942134;29;20035;-77
2023/05/17 09:48:24;;;;;;;9.20;4.60;;;;;;;19.88;54.91;101603.31;4921052;29;20040;-77
2023/05/17 09:50:51;;;;;;;11.13;4.65;;;;;;;19.89;55.63;101598.50;4904608;29;20024;-77
2023/05/17 09:53:27;;;;;;;11.32;4.55;;;;;;;20.00;55.49;101608.28;4936393;29;20039;-77
2023/05/17 09:55:53;;;;;;;6.82;4.30;;;;;;;20.08;54.36;101601.84;4935912;29;20088;-77
2023/05/17 09:58:20;;;;;;;8.20;4.57;;;;;;;20.18;53.81;101590.22;4916828;29;20037;-77
2023/05/17 10:00:49;;;;;;;9.77;5.00;;;;;;;20.40;53.33;101596.84;4916994;29;20064;-77
2023/05/17 10:03:16;;;;;;;9.30;5.30;;;;;;;20.35;50.65;101599.84;4906767;29;20063;-78
2023/05/17 10:05:42;;;;;;;10.43;5.80;;;;;;;20.25;48.59;101601.84;4909109;29;20107;-78
2023/05/17 10:08:12;;;;;;;12.35;6.03;;;;;;;20.31;49.15;101596.84;4935731;29;20024;-77
2023/05/17 10:10:38;;;;;;;9.90;5.75;;;;;;;20.41;51.39;101593.66;4937168;29;20058;-78
2023/05/17 10:13:05;;;;;;;10.13;5.53;;;;;;;20.42;51.34;101600.13;4919781;29;20503;-77
2023/05/17 10:15:31;;;;;;;10.48;5.68;;;;;;;20.40;50.69;101592.03;4918429;29;20028;-78
2023/05/17 10:17:57;;;;;;;11.52;5.60;;;;;;;20.57;50.33;101594.00;4935212;29;20034;-78
2023/05/17 10:20:23;;;;;;;7.38;4.82;;;;;;;20.53;49.41;101591.03;4919506;29;20028;-78
2023/05/17 10:22:48;;;;;;;12.35;5.50;;;;;;;20.63;47.52;101583.38;4932027;29;20039;-78
2023/05/17 10:25:14;;;;;;;8.40;5.40;;;;;;;20.69;48.77;101587.66;4934570;29;20040;-77
2023/05/17 10:27:40;;;;;;;8.02;5.10;;;;;;;20.74;50.19;101588.31;4938235;29;20039;-78
2023/05/17 10:30:06;;;;;;;9.85;4.90;;;;;;;20.87;50.85;101582.78;4932667;29;20051;-77
2023/05/17 10:32:32;;;;;;;9.55;5.28;;;;;;;20.82;49.13;101577.34;4934979;29;20036;-78
2023/05/17 10:34:57;;;;;;;9.10;5.18;;;;;;;20.93;49.90;101576.59;4920139;29;20039;-78
2023/05/17 10:37:23;;;;;;;9.20;4.25;;;;;;;21.05;49.67;101570.25;4919361;29;20035;-78
2023/05/17 10:39:50;;;;;;;12.07;4.78;;;;;;;21.18;50.30;101579.66;4919376;29;20478;-78
2023/05/17 10:42:16;;;;;;;9.52;4.45;;;;;;;21.12;49.26;101581.84;4935296;29;20038;-78
2023/05/17 10:44:41;;;;;;;9.50;4.55;;;;;;;21.10;47.25;101581.34;4937052;29;20065;-78
2023/05/17 10:47:07;;;;;;;9.95;3.75;;;;;;;21.05;47.42;101577.88;4920018;29;20040;-77
2023/05/17 10:49:33;;;;;;;8.52;4.22;;;;;;;21.14;47.92;101576.66;4934915;29;20036;-78
2023/05/17 10:52:12;;;;;;;9.07;3.72;;;;;;;21.12;49.03;101583.84;4934814;29;20051;-79
2023/05/17 10:54:42;;;;;;;6.93;3.08;;;;;;;21.10;46.88;101581.34;4917817;29;20064;-78
2023/05/17 10:57:07;;;;;;;5.38;2.85;;;;;;;20.78;45.95;101574.34;4926973;29;20044;-78
2023/05/17 10:59:34;;;;;;;10.43;2.88;;;;;;;20.67;46.91;101579.53;4921929;29;20095;-78
2023/05/17 11:02:03;;;;;;;7.75;3.05;;;;;;;20.71;46.83;101577.69;4920804;29;20032;-78
2023/05/17 11:04:44;;;;;;;6.47;3.00;;;;;;;20.62;48.18;101568.44;4922220;29;20036;-77
2023/05/17 11:07:16;;;;;;;8.60;3.28;;;;;;;20.76;48.52;101565.41;4935229;29;20036;-78
2023/05/17 11:09:45;;;;;;;7.55;3.25;;;;;;;20.69;49.04;101568.72;4939172;29;20036;-78
2023/05/17 11:12:12;;;;;;;6.57;3.20;;;;;;;20.69;48.85;101574.38;4937708;29;20043;-78
2023/05/17 11:14:43;;;;;;;6.32;3.58;;;;;;;20.61;49.35;101563.09;4937881;29;20046;-78
2023/05/17 11:17:13;;;;;;;5.57;3.17;;;;;;;20.63;48.92;101566.44;4937434;29;20424;-78